Disclaimer

Please do not use the information listed here in-flight or in-navigation, as they are not provided to us by the airports but are provided by volunteers, so they might be outdated.

Search


Regions


Airport information page

Radio informations:
Tower (TWR) - 118.35 MHz
Approach (APP) - 119.9 MHz

Airport informations:
Latitude: 41° 55' 27.90" N
Longitude: 009° 24' 21.60" E
Elevation: 28 feet - 9 meters
Operating hours: Remarks
Operating agency: Military
Timezone: UTC+1(+2DT) - Last Sunday in March to last Sunday in October
Fuel: JP-8, SemiKeroscene MIL Spec T-83133, without icing inhibitor

100/130 MIL Spec, low lead, aviation gasoline (BLUE)

Runway information:
18/36 - 8619 x 148 feet< - >2627 x 45 meters

Recent METARs:
LFKS 210230Z AUTO 27005KT 9999 OVC024/// ///TCU 11/08 Q1010
LFKS 210300Z AUTO 28005KT 250V310 9999 BKN025/// BKN043/// BKN054/// 11/08 Q1010
LFKS 210330Z AUTO 28004KT 250V320 9999 -RA FEW025/// SCT068/// BKN090/// ///TCU 11/09 Q1010

Airport on the map: